createdAt,value
2018-04-27T00:00:43.822Z,1010.87
2018-04-27T00:01:43.806Z,1010.81
2018-04-27T00:02:43.788Z,1010.84
2018-04-27T00:03:43.764Z,1010.83
2018-04-27T00:04:43.753Z,1010.82
2018-04-27T00:05:43.726Z,1010.80
2018-04-27T00:06:43.710Z,1010.80
2018-04-27T00:07:43.705Z,1010.79
2018-04-27T00:08:43.668Z,1010.78
2018-04-27T00:09:43.649Z,1010.75
2018-04-27T00:10:43.632Z,1010.78
2018-04-27T00:11:43.611Z,1010.74
2018-04-27T00:12:43.592Z,1010.73
2018-04-27T00:13:43.581Z,1010.74
2018-04-27T00:14:43.553Z,1010.76
2018-04-27T00:15:43.538Z,1010.72
2018-04-27T00:16:43.516Z,1010.67
2018-04-27T00:17:43.497Z,1010.66
2018-04-27T00:18:43.476Z,1010.71
2018-04-27T00:19:43.456Z,1010.64
2018-04-27T00:20:43.439Z,1010.61
2018-04-27T00:21:43.423Z,1010.60
2018-04-27T00:22:43.403Z,1010.64
2018-04-27T00:23:43.380Z,1010.62
2018-04-27T00:24:43.362Z,1010.60
2018-04-27T00:25:43.351Z,1010.59
2018-04-27T00:26:43.322Z,1010.58
2018-04-27T00:27:43.303Z,1010.59
2018-04-27T00:28:43.283Z,1010.58
2018-04-27T00:29:43.268Z,1010.61
2018-04-27T00:30:43.250Z,1010.63
2018-04-27T00:31:43.225Z,1010.62
2018-04-27T00:32:43.207Z,1010.62
2018-04-27T00:33:43.189Z,1010.65
2018-04-27T00:34:43.169Z,1010.63
2018-04-27T00:35:43.150Z,1010.63
2018-04-27T00:36:43.135Z,1010.59
2018-04-27T00:37:43.112Z,1010.60
2018-04-27T00:38:43.167Z,1010.54
2018-04-27T00:39:43.080Z,1010.57
2018-04-27T00:40:43.053Z,1010.52
2018-04-27T00:41:43.111Z,1010.54
2018-04-27T00:42:43.015Z,1010.55
2018-04-27T00:43:42.999Z,1010.52
2018-04-27T00:44:42.976Z,1010.52
2018-04-27T00:45:42.965Z,1010.50
2018-04-27T00:46:42.938Z,1010.52
2018-04-27T00:47:42.919Z,1010.44
2018-04-27T00:48:42.899Z,1010.45
2018-04-27T00:49:42.881Z,1010.44
2018-04-27T00:50:42.862Z,1010.47
2018-04-27T00:51:42.846Z,1010.47
2018-04-27T00:52:42.823Z,1010.44
2018-04-27T00:53:42.803Z,1010.46
2018-04-27T00:54:42.782Z,1010.46
2018-04-27T00:55:42.764Z,1010.45
2018-04-27T00:56:42.745Z,1010.45
2018-04-27T00:57:42.726Z,1010.46
2018-04-27T00:58:42.707Z,1010.43
2018-04-27T00:59:42.688Z,1010.46
2018-04-27T01:00:42.669Z,1010.45
2018-04-27T01:01:42.649Z,1010.44
2018-04-27T01:02:42.630Z,1010.42
2018-04-27T01:03:42.615Z,1010.39
2018-04-27T01:04:42.592Z,1010.41
2018-04-27T01:05:42.583Z,1010.38
2018-04-27T01:06:42.556Z,1010.37
2018-04-27T01:07:42.533Z,1010.38
2018-04-27T01:08:42.515Z,1010.36
2018-04-27T01:09:42.496Z,1010.34
2018-04-27T01:10:42.474Z,1010.28
2018-04-27T01:11:42.456Z,1010.34
2018-04-27T01:12:42.436Z,1010.27
2018-04-27T01:13:42.419Z,1010.33
2018-04-27T01:14:42.398Z,1010.31
2018-04-27T01:15:42.378Z,1010.33
2018-04-27T01:16:42.360Z,1010.34
2018-04-27T01:17:42.348Z,1010.31
2018-04-27T01:18:42.320Z,1010.26
2018-04-27T01:19:42.301Z,1010.23
2018-04-27T01:20:42.282Z,1010.24
2018-04-27T01:21:42.262Z,1010.22
2018-04-27T01:22:42.241Z,1010.25
2018-04-27T01:23:42.223Z,1010.23
2018-04-27T01:24:42.204Z,1010.22
2018-04-27T01:25:42.182Z,1010.19
2018-04-27T01:26:42.164Z,1010.18
2018-04-27T01:27:42.159Z,1010.15
2018-04-27T01:28:42.133Z,1010.17
2018-04-27T01:29:42.104Z,1010.16
2018-04-27T01:30:42.085Z,1010.13
2018-04-27T01:31:42.069Z,1010.15
2018-04-27T01:32:42.053Z,1010.16
2018-04-27T01:33:42.026Z,1010.17
2018-04-27T01:34:42.004Z,1010.11
2018-04-27T01:35:41.987Z,1010.13
2018-04-27T01:36:41.967Z,1010.18
2018-04-27T01:37:41.947Z,1010.13
2018-04-27T01:38:41.927Z,1010.12
2018-04-27T01:39:41.908Z,1010.17
2018-04-27T01:40:41.888Z,1010.10
2018-04-27T01:41:41.869Z,1010.10
2018-04-27T01:42:41.848Z,1010.10
2018-04-27T01:43:41.830Z,1010.13
2018-04-27T01:44:41.811Z,1010.09
2018-04-27T01:45:41.791Z,1010.04
2018-04-27T01:46:41.772Z,1010.03
2018-04-27T01:47:41.756Z,1010.03
2018-04-27T01:48:41.734Z,1009.98
2018-04-27T01:49:41.714Z,1010.00
2018-04-27T01:50:41.692Z,1010.00
2018-04-27T01:51:41.673Z,1010.00
2018-04-27T01:52:41.654Z,1009.95
2018-04-27T01:53:41.637Z,1009.98
2018-04-27T01:54:41.624Z,1009.96
2018-04-27T01:55:41.596Z,1009.98
2018-04-27T01:56:41.581Z,1009.95
2018-04-27T01:57:41.559Z,1009.98
2018-04-27T01:58:41.536Z,1009.98
2018-04-27T01:59:41.517Z,1009.98
2018-04-27T02:00:41.500Z,1010.02
2018-04-27T02:01:41.481Z,1010.00
2018-04-27T02:02:41.465Z,1010.00
2018-04-27T02:03:41.440Z,1010.01
2018-04-27T02:04:41.417Z,1010.03
2018-04-27T02:05:41.401Z,1010.05
2018-04-27T02:06:41.380Z,1010.06
2018-04-27T02:07:41.370Z,1010.04
2018-04-27T02:08:41.365Z,1010.00
2018-04-27T02:09:41.322Z,1010.02
2018-04-27T02:10:41.299Z,1009.96
2018-04-27T02:11:41.281Z,1009.98
2018-04-27T02:12:41.266Z,1009.95
2018-04-27T02:13:41.242Z,1009.96
2018-04-27T02:14:41.224Z,1009.94
2018-04-27T02:15:41.202Z,1009.91
2018-04-27T02:16:41.183Z,1009.93
2018-04-27T02:17:41.163Z,1009.93
2018-04-27T02:18:41.143Z,1009.94
2018-04-27T02:19:41.121Z,1009.92
2018-04-27T02:20:41.109Z,1009.87
2018-04-27T02:21:41.084Z,1009.91
2018-04-27T02:22:41.064Z,1009.89
2018-04-27T02:23:41.045Z,1009.89
2018-04-27T02:24:41.032Z,1009.87
2018-04-27T02:25:41.004Z,1009.85
2018-04-27T02:26:40.984Z,1009.86
2018-04-27T02:27:40.963Z,1009.81
2018-04-27T02:28:40.941Z,1009.82
2018-04-27T02:29:40.932Z,1009.81
2018-04-27T02:30:40.908Z,1009.79
2018-04-27T02:31:40.891Z,1009.77
2018-04-27T02:32:40.862Z,1009.74
2018-04-27T02:33:40.852Z,1009.73
2018-04-27T02:34:40.825Z,1009.69
2018-04-27T02:35:40.801Z,1009.72
2018-04-27T02:36:40.785Z,1009.67
2018-04-27T02:37:40.763Z,1009.69
2018-04-27T02:38:40.741Z,1009.68
2018-04-27T02:39:40.720Z,1009.69
2018-04-27T02:40:40.700Z,1009.64
2018-04-27T02:41:40.689Z,1009.68
2018-04-27T02:42:40.662Z,1009.64
2018-04-27T02:43:40.643Z,1009.63
2018-04-27T02:44:40.620Z,1009.64
2018-04-27T02:45:40.600Z,1009.63
2018-04-27T02:46:40.580Z,1009.66
2018-04-27T02:47:40.558Z,1009.66
2018-04-27T02:48:40.540Z,1009.69
2018-04-27T02:49:40.521Z,1009.66
2018-04-27T02:50:40.500Z,1009.65
2018-04-27T02:51:40.479Z,1009.66
2018-04-27T02:52:40.461Z,1009.65
2018-04-27T02:53:40.441Z,1009.70
2018-04-27T02:54:40.419Z,1009.65
2018-04-27T02:55:40.400Z,1009.66
2018-04-27T02:56:40.384Z,1009.68
2018-04-27T02:57:40.361Z,1009.66
2018-04-27T02:58:40.339Z,1009.68
2018-04-27T02:59:40.319Z,1009.67
2018-04-27T03:00:40.300Z,1009.64
2018-04-27T03:01:40.289Z,1009.69
2018-04-27T03:02:40.258Z,1009.68
2018-04-27T03:03:40.239Z,1009.69
2018-04-27T03:04:40.225Z,1009.71
2018-04-27T03:05:40.201Z,1009.68
2018-04-27T03:06:40.185Z,1009.67
2018-04-27T03:07:40.159Z,1009.64
2018-04-27T03:08:40.147Z,1009.64
2018-04-27T03:09:40.229Z,1009.65
2018-04-27T03:10:40.099Z,1009.61
2018-04-27T03:11:40.079Z,1009.59
2018-04-27T03:12:40.062Z,1009.63
2018-04-27T03:13:40.040Z,1009.59
2018-04-27T03:14:40.018Z,1009.58
2018-04-27T03:15:39.997Z,1009.60
2018-04-27T03:16:39.986Z,1009.60
2018-04-27T03:17:39.957Z,1009.61
2018-04-27T03:18:39.938Z,1009.58
2018-04-27T03:19:39.921Z,1009.56
2018-04-27T03:20:39.897Z,1009.59
2018-04-27T03:21:39.880Z,1009.53
2018-04-27T03:22:39.859Z,1009.52
2018-04-27T03:23:39.908Z,1009.55
2018-04-27T03:24:39.818Z,1009.54
2018-04-27T03:25:39.802Z,1009.48
2018-04-27T03:26:39.775Z,1009.49
2018-04-27T03:27:39.756Z,1009.46
2018-04-27T03:28:39.741Z,1009.45
2018-04-27T03:29:39.715Z,1009.45
2018-04-27T03:30:39.696Z,1009.45
2018-04-27T03:31:39.681Z,1009.46
2018-04-27T03:32:39.662Z,1009.43
2018-04-27T03:33:39.634Z,1009.43
2018-04-27T03:34:39.612Z,1009.43
2018-04-27T03:35:39.592Z,1009.45
2018-04-27T03:36:39.571Z,1009.41
2018-04-27T03:37:39.552Z,1009.44
2018-04-27T03:38:39.529Z,1009.43
2018-04-27T03:39:39.610Z,1009.44
2018-04-27T03:40:39.491Z,1009.40
2018-04-27T03:41:39.470Z,1009.40
2018-04-27T03:42:39.455Z,1009.38
2018-04-27T03:43:39.430Z,1009.38
2018-04-27T03:44:39.408Z,1009.39
2018-04-27T03:45:39.389Z,1009.36
2018-04-27T03:46:39.375Z,1009.36
2018-04-27T03:47:39.347Z,1009.36
2018-04-27T03:48:39.326Z,1009.37
2018-04-27T03:49:39.307Z,1009.37
2018-04-27T03:50:39.287Z,1009.38
2018-04-27T03:51:39.266Z,1009.37
2018-04-27T03:52:39.248Z,1009.40
2018-04-27T03:53:39.226Z,1009.38
2018-04-27T03:54:39.205Z,1009.41
2018-04-27T03:55:39.185Z,1009.39
2018-04-27T03:56:39.168Z,1009.38
2018-04-27T03:57:39.145Z,1009.36
2018-04-27T03:58:39.125Z,1009.36
2018-04-27T03:59:39.106Z,1009.37
2018-04-27T04:00:39.084Z,1009.34
2018-04-27T04:01:39.073Z,1009.33
2018-04-27T04:02:39.044Z,1009.34
2018-04-27T04:03:39.022Z,1009.33
2018-04-27T04:04:39.005Z,1009.38
2018-04-27T04:05:38.986Z,1009.37
2018-04-27T04:06:38.985Z,1009.34
2018-04-27T04:07:38.946Z,1009.36
2018-04-27T04:08:38.922Z,1009.34
2018-04-27T04:09:38.903Z,1009.34
2018-04-27T04:10:38.881Z,1009.33
2018-04-27T04:11:38.863Z,1009.34
2018-04-27T04:12:38.839Z,1009.31
2018-04-27T04:13:38.870Z,1009.30
2018-04-27T04:14:38.798Z,1009.29
2018-04-27T04:15:38.779Z,1009.30
2018-04-27T04:16:38.759Z,1009.31
2018-04-27T04:17:38.738Z,1009.29
2018-04-27T04:18:38.723Z,1009.31
2018-04-27T04:19:38.697Z,1009.28
2018-04-27T04:20:38.685Z,1009.24
2018-04-27T04:21:38.657Z,1009.24
2018-04-27T04:22:38.634Z,1009.26
2018-04-27T04:23:38.623Z,1009.27
2018-04-27T04:24:38.596Z,1009.24
2018-04-27T04:25:38.592Z,1009.29
2018-04-27T04:26:38.554Z,1009.25
2018-04-27T04:27:38.534Z,1009.23
2018-04-27T04:28:38.664Z,1009.26
2018-04-27T04:29:38.493Z,1009.26
2018-04-27T04:30:38.471Z,1009.23
2018-04-27T04:31:38.464Z,1009.20
2018-04-27T04:32:38.435Z,1009.24
2018-04-27T04:33:38.417Z,1009.25
2018-04-27T04:34:38.390Z,1009.28
2018-04-27T04:35:38.379Z,1009.28
2018-04-27T04:36:38.352Z,1009.27
2018-04-27T04:37:38.330Z,1009.30
2018-04-27T04:38:38.309Z,1009.26
2018-04-27T04:39:38.294Z,1009.26
2018-04-27T04:40:38.269Z,1009.25
2018-04-27T04:41:38.249Z,1009.29
2018-04-27T04:42:38.228Z,1009.30
2018-04-27T04:43:38.211Z,1009.31
2018-04-27T04:44:38.191Z,1009.38
2018-04-27T04:45:38.169Z,1009.37
2018-04-27T04:46:38.156Z,1009.35
2018-04-27T04:47:38.132Z,1009.37
2018-04-27T04:48:38.107Z,1009.38
2018-04-27T04:49:38.088Z,1009.39
2018-04-27T04:50:38.217Z,1009.38
2018-04-27T04:51:38.047Z,1009.38
2018-04-27T04:52:38.092Z,1009.40
2018-04-27T04:53:38.007Z,1009.39
2018-04-27T04:54:37.987Z,1009.35
2018-04-27T04:55:37.968Z,1009.35
2018-04-27T04:56:38.749Z,1009.33
2018-04-27T04:57:37.938Z,1009.38
2018-04-27T04:58:37.911Z,1009.37
2018-04-27T04:59:37.887Z,1009.41
2018-04-27T05:00:37.870Z,1009.40
2018-04-27T05:01:37.846Z,1009.37
2018-04-27T05:02:37.825Z,1009.39
2018-04-27T05:03:37.805Z,1009.40
2018-04-27T05:04:37.785Z,1009.38
2018-04-27T05:05:37.766Z,1009.38
2018-04-27T05:06:37.744Z,1009.37
2018-04-27T05:07:37.728Z,1009.37
2018-04-27T05:08:37.707Z,1009.37
2018-04-27T05:09:37.685Z,1009.36
2018-04-27T05:10:37.765Z,1009.38
2018-04-27T05:11:37.647Z,1009.35
2018-04-27T05:12:37.625Z,1009.38
2018-04-27T05:13:37.608Z,1009.37
2018-04-27T05:14:37.593Z,1009.35
2018-04-27T05:15:37.564Z,1009.33
2018-04-27T05:16:37.544Z,1009.34
2018-04-27T05:17:37.531Z,1009.29
2018-04-27T05:18:37.503Z,1009.28
2018-04-27T05:19:37.483Z,1009.33
2018-04-27T05:20:37.464Z,1009.30
2018-04-27T05:21:37.444Z,1009.28
2018-04-27T05:22:37.424Z,1009.28
2018-04-27T05:23:37.404Z,1009.19
2018-04-27T05:24:37.459Z,1009.19
2018-04-27T05:25:37.361Z,1009.26
2018-04-27T05:26:37.352Z,1009.31
2018-04-27T05:27:37.335Z,1009.33
2018-04-27T05:28:37.307Z,1009.42
2018-04-27T05:29:37.383Z,1009.38
2018-04-27T05:30:37.269Z,1009.39
2018-04-27T05:31:37.245Z,1009.52
2018-04-27T05:32:37.223Z,1009.59
2018-04-27T05:33:37.205Z,1009.42
2018-04-27T05:34:37.182Z,1009.64
2018-04-27T05:35:37.166Z,1009.75
2018-04-27T05:36:37.147Z,1009.75
2018-04-27T05:37:37.128Z,1009.74
2018-04-27T05:38:37.124Z,1009.85
2018-04-27T05:39:37.090Z,1009.72
2018-04-27T05:40:37.145Z,1009.74
2018-04-27T05:41:37.056Z,1009.80
2018-04-27T05:42:37.033Z,1009.78
2018-04-27T05:43:37.022Z,1009.82
2018-04-27T05:44:37.003Z,1009.83
2018-04-27T05:45:36.991Z,1009.89
2018-04-27T05:46:36.969Z,1009.94
2018-04-27T05:47:36.955Z,1009.90
2018-04-27T05:48:36.938Z,1009.89
2018-04-27T05:49:36.973Z,1009.84
2018-04-27T05:50:36.906Z,1009.79
2018-04-27T05:51:36.893Z,1009.81
2018-04-27T05:52:36.879Z,1009.90
2018-04-27T05:53:36.869Z,1009.77
2018-04-27T05:54:36.850Z,1009.88
2018-04-27T05:55:36.884Z,1009.90
2018-04-27T05:56:36.825Z,1009.92
2018-04-27T05:57:36.810Z,1009.89
2018-04-27T05:58:36.794Z,1009.89
2018-04-27T05:59:36.782Z,1009.70
2018-04-27T06:00:36.770Z,1009.80
2018-04-27T06:01:36.764Z,1009.75
2018-04-27T06:02:36.754Z,1009.66
2018-04-27T06:03:36.733Z,1009.77
2018-04-27T06:04:36.785Z,1009.73
2018-04-27T06:05:36.714Z,1009.79
2018-04-27T06:06:36.704Z,1009.78
2018-04-27T06:07:36.691Z,1009.84
2018-04-27T06:08:36.676Z,1009.75
2018-04-27T06:09:36.663Z,1009.82
2018-04-27T06:10:36.652Z,1009.83
2018-04-27T06:11:36.639Z,1009.86
2018-04-27T06:12:36.632Z,1009.81
2018-04-27T06:13:36.618Z,1009.66
2018-04-27T06:14:36.607Z,1009.68
2018-04-27T06:15:36.598Z,1009.53
2018-04-27T06:16:36.586Z,1009.70
2018-04-27T06:17:36.584Z,1009.73
2018-04-27T06:18:36.565Z,1009.54
2018-04-27T06:19:36.561Z,1009.64
2018-04-27T06:20:36.552Z,1009.51
2018-04-27T06:21:36.536Z,1009.39
2018-04-27T06:22:36.522Z,1009.40
2018-04-27T06:23:36.515Z,1009.48
2018-04-27T06:24:36.501Z,1009.51
2018-04-27T06:25:36.492Z,1009.42
2018-04-27T06:26:36.482Z,1009.32
2018-04-27T06:27:36.470Z,1009.29
2018-04-27T06:28:36.469Z,1009.24
2018-04-27T06:29:36.458Z,1009.21
2018-04-27T06:30:36.441Z,1009.20
2018-04-27T06:31:36.428Z,1009.16
2018-04-27T06:32:36.418Z,1009.12
2018-04-27T06:33:36.406Z,1009.12
2018-04-27T06:34:36.395Z,1009.06
2018-04-27T06:35:36.385Z,1009.08
2018-04-27T06:36:36.373Z,1009.03
2018-04-27T06:37:36.365Z,1009.08
2018-04-27T06:38:36.349Z,1009.06
2018-04-27T06:39:36.339Z,1009.05
2018-04-27T06:40:36.327Z,1009.08
2018-04-27T06:41:36.315Z,1009.18
2018-04-27T06:42:36.302Z,1009.20
2018-04-27T06:43:36.290Z,1009.20
2018-04-27T06:44:36.286Z,1009.27
2018-04-27T06:45:36.265Z,1009.03
2018-04-27T06:46:36.260Z,1009.01
2018-04-27T06:47:36.242Z,1008.99
2018-04-27T06:48:36.229Z,1009.02
2018-04-27T06:49:36.217Z,1009.02
2018-04-27T06:50:36.204Z,1009.01
2018-04-27T06:51:36.213Z,1008.99
2018-04-27T06:52:36.188Z,1008.97
2018-04-27T06:53:36.167Z,1008.95
2018-04-27T06:54:36.154Z,1008.96
2018-04-27T06:55:36.141Z,1008.93
2018-04-27T06:56:36.131Z,1008.92
2018-04-27T06:57:36.117Z,1008.95
2018-04-27T06:58:36.103Z,1008.94
2018-04-27T06:59:36.099Z,1008.91
2018-04-27T07:00:36.078Z,1008.92
2018-04-27T07:01:36.069Z,1008.87
2018-04-27T07:02:36.051Z,1008.94
2018-04-27T07:03:36.038Z,1008.92
2018-04-27T07:04:36.025Z,1008.93
2018-04-27T07:05:36.012Z,1008.88
2018-04-27T07:06:35.996Z,1008.90
2018-04-27T07:07:35.991Z,1008.90
2018-04-27T07:08:35.971Z,1008.91
2018-04-27T07:09:35.962Z,1008.89
2018-04-27T07:10:35.945Z,1008.95
2018-04-27T07:11:35.994Z,1008.88
2018-04-27T07:12:35.932Z,1008.85
2018-04-27T07:13:35.904Z,1008.82
2018-04-27T07:14:35.888Z,1008.81
2018-04-27T07:15:35.876Z,1008.81
2018-04-27T07:16:35.869Z,1008.77
2018-04-27T07:17:35.848Z,1008.82
2018-04-27T07:18:35.834Z,1008.79
2018-04-27T07:19:35.820Z,1008.84
2018-04-27T07:20:35.807Z,1008.80
2018-04-27T07:21:35.795Z,1008.78
2018-04-27T07:22:35.780Z,1008.79
2018-04-27T07:23:35.765Z,1008.77
2018-04-27T07:24:35.753Z,1008.79
2018-04-27T07:25:35.738Z,1008.86
2018-04-27T07:26:35.732Z,1008.81
2018-04-27T07:27:35.711Z,1008.81
2018-04-27T07:28:35.696Z,1008.82
2018-04-27T07:29:35.691Z,1008.83
2018-04-27T07:30:35.668Z,1008.81
2018-04-27T07:31:35.654Z,1008.83
2018-04-27T07:32:35.640Z,1008.79
2018-04-27T07:33:35.626Z,1008.80
2018-04-27T07:34:35.620Z,1008.78
2018-04-27T07:35:35.608Z,1008.74
2018-04-27T07:36:35.583Z,1008.80
2018-04-27T07:37:35.569Z,1008.79
2018-04-27T07:38:35.554Z,1008.83
2018-04-27T07:39:35.583Z,1008.81
2018-04-27T07:40:35.529Z,1008.90
2018-04-27T07:41:35.514Z,1008.84
2018-04-27T07:42:35.499Z,1008.88
2018-04-27T07:43:35.491Z,1008.97
2018-04-27T07:44:35.470Z,1009.06
2018-04-27T07:45:35.457Z,1008.86
2018-04-27T07:46:35.442Z,1009.03
2018-04-27T07:47:35.428Z,1008.97
2018-04-27T07:48:35.415Z,1008.88
2018-04-27T07:49:35.400Z,1008.83
2018-04-27T07:50:35.387Z,1008.80
2018-04-27T07:51:35.377Z,1008.81
2018-04-27T07:52:35.375Z,1008.77
2018-04-27T07:53:35.348Z,1008.78
2018-04-27T07:54:35.336Z,1008.77
2018-04-27T07:55:35.323Z,1008.73
2018-04-27T07:56:35.307Z,1008.72
2018-04-27T07:57:35.302Z,1008.73
2018-04-27T07:58:35.289Z,1008.71
2018-04-27T07:59:35.277Z,1008.67
2018-04-27T08:00:35.264Z,1008.75
2018-04-27T08:01:35.243Z,1008.75
2018-04-27T08:02:35.235Z,1008.81
2018-04-27T08:03:35.223Z,1008.78
2018-04-27T08:04:35.204Z,1008.79
2018-04-27T08:05:35.190Z,1008.75
2018-04-27T08:06:35.184Z,1008.76
2018-04-27T08:07:35.163Z,1008.81
2018-04-27T08:08:35.152Z,1008.73
2018-04-27T08:09:35.139Z,1008.68
2018-04-27T08:10:35.129Z,1008.74
2018-04-27T08:11:35.116Z,1008.70
2018-04-27T08:12:35.109Z,1008.66
2018-04-27T08:13:35.089Z,1008.69
2018-04-27T08:14:35.079Z,1008.70
2018-04-27T08:15:35.071Z,1008.67
2018-04-27T08:16:35.064Z,1008.61
2018-04-27T08:17:35.037Z,1008.55
2018-04-27T08:18:35.064Z,1008.59
2018-04-27T08:19:35.019Z,1008.63
2018-04-27T08:20:35.006Z,1008.59
2018-04-27T08:21:34.986Z,1008.61
2018-04-27T08:22:34.972Z,1008.60
2018-04-27T08:23:34.976Z,1008.60
2018-04-27T08:24:35.031Z,1008.59
2018-04-27T08:25:34.935Z,1008.57
2018-04-27T08:26:34.928Z,1008.56
2018-04-27T08:27:34.917Z,1008.51
2018-04-27T08:28:34.904Z,1008.53
2018-04-27T08:29:34.884Z,1008.55
2018-04-27T08:30:34.870Z,1008.56
2018-04-27T08:31:34.862Z,1008.54
2018-04-27T08:32:34.846Z,1008.53
2018-04-27T08:33:34.833Z,1008.51
2018-04-27T08:34:34.824Z,1008.55
2018-04-27T08:35:34.808Z,1008.53
2018-04-27T08:36:34.794Z,1008.53
2018-04-27T08:37:34.781Z,1008.56
2018-04-27T08:38:34.768Z,1008.52
2018-04-27T08:39:34.761Z,1008.50
2018-04-27T08:40:34.742Z,1008.52
2018-04-27T08:41:34.730Z,1008.46
2018-04-27T08:42:34.715Z,1008.44
2018-04-27T08:43:34.704Z,1008.46
2018-04-27T08:44:34.700Z,1008.49
2018-04-27T08:45:34.679Z,1008.48
2018-04-27T08:46:34.674Z,1008.49
2018-04-27T08:47:34.656Z,1008.47
2018-04-27T08:48:34.641Z,1008.48
2018-04-27T08:49:34.630Z,1008.49
2018-04-27T08:50:34.776Z,1008.47
2018-04-27T08:51:34.603Z,1008.51
2018-04-27T08:52:34.607Z,1008.49
2018-04-27T08:53:34.578Z,1008.49
2018-04-27T08:54:34.565Z,1008.44
2018-04-27T08:55:34.561Z,1008.47
2018-04-27T08:56:34.540Z,1008.50
2018-04-27T08:57:34.535Z,1008.47
2018-04-27T08:58:34.516Z,1008.47
2018-04-27T08:59:34.501Z,1008.46
2018-04-27T09:00:34.489Z,1008.45
2018-04-27T09:01:34.479Z,1008.43
2018-04-27T09:02:34.464Z,1008.51
2018-04-27T09:03:34.451Z,1008.52
2018-04-27T09:04:34.438Z,1008.50
2018-04-27T09:05:34.428Z,1008.54
2018-04-27T09:06:34.417Z,1008.54
2018-04-27T09:07:34.400Z,1008.49
2018-04-27T09:08:34.389Z,1008.51
2018-04-27T09:09:34.390Z,1008.49
2018-04-27T09:10:34.364Z,1008.50
2018-04-27T09:11:34.361Z,1008.50
2018-04-27T09:12:34.341Z,1008.49
2018-04-27T09:13:34.326Z,1008.50
2018-04-27T09:14:34.316Z,1008.44
2018-04-27T09:15:34.302Z,1008.43
2018-04-27T09:16:34.298Z,1008.44
2018-04-27T09:17:34.275Z,1008.39
2018-04-27T09:18:34.262Z,1008.42
2018-04-27T09:19:34.250Z,1008.41
2018-04-27T09:20:34.239Z,1008.49
2018-04-27T09:21:34.249Z,1008.46
2018-04-27T09:22:34.212Z,1008.50
2018-04-27T09:23:34.202Z,1008.44
2018-04-27T09:24:34.191Z,1008.42
2018-04-27T09:25:34.178Z,1008.44
2018-04-27T09:26:34.164Z,1008.37
2018-04-27T09:27:34.170Z,1008.41
2018-04-27T09:28:34.143Z,1008.41
2018-04-27T09:29:34.129Z,1008.43
2018-04-27T09:30:34.116Z,1008.47
2018-04-27T09:31:34.106Z,1008.49
2018-04-27T09:32:34.094Z,1008.57
2018-04-27T09:33:34.086Z,1008.65
2018-04-27T09:34:34.070Z,1008.55
2018-04-27T09:35:34.064Z,1008.52
2018-04-27T09:36:34.051Z,1008.48
2018-04-27T09:37:34.038Z,1008.44
2018-04-27T09:38:34.027Z,1008.45
2018-04-27T09:39:34.017Z,1008.42
2018-04-27T09:40:34.004Z,1008.40
2018-04-27T09:41:33.994Z,1008.44
2018-04-27T09:42:34.003Z,1008.46
2018-04-27T09:43:33.979Z,1008.48
2018-04-27T09:44:33.972Z,1008.47
2018-04-27T09:45:33.963Z,1008.41
2018-04-27T09:46:33.945Z,1008.39
2018-04-27T09:47:33.934Z,1008.35
2018-04-27T09:48:33.926Z,1008.29
2018-04-27T09:49:33.916Z,1008.33
2018-04-27T09:50:33.906Z,1008.26
2018-04-27T09:51:33.898Z,1008.27
2018-04-27T09:52:33.887Z,1008.23
2018-04-27T09:53:33.882Z,1008.30
2018-04-27T09:54:33.878Z,1008.24
2018-04-27T09:55:33.862Z,1008.28
2018-04-27T09:56:33.851Z,1008.31
2018-04-27T09:57:33.857Z,1008.29
2018-04-27T09:58:33.833Z,1008.30
2018-04-27T09:59:33.823Z,1008.19
2018-04-27T10:00:33.825Z,1008.24
2018-04-27T10:01:33.813Z,1008.18
2018-04-27T10:02:33.798Z,1008.14
2018-04-27T10:03:33.787Z,1008.10
2018-04-27T10:04:33.778Z,1008.07
2018-04-27T10:05:33.777Z,1007.99
2018-04-27T10:06:33.759Z,1008.01
2018-04-27T10:07:33.760Z,1007.97
2018-04-27T10:08:33.751Z,1007.99
2018-04-27T10:09:33.735Z,1007.98
2018-04-27T10:10:33.726Z,1007.96
2018-04-27T10:11:33.718Z,1007.90
2018-04-27T10:12:33.712Z,1007.96
2018-04-27T10:13:33.702Z,1007.94
2018-04-27T10:14:33.694Z,1007.99
2018-04-27T10:15:33.685Z,1007.94
2018-04-27T10:16:33.676Z,1007.97
2018-04-27T10:17:33.669Z,1007.89
2018-04-27T10:18:33.664Z,1007.91
2018-04-27T10:19:33.652Z,1007.93
2018-04-27T10:20:33.680Z,1007.95
2018-04-27T10:21:33.637Z,1007.93
2018-04-27T10:22:33.638Z,1007.96
2018-04-27T10:23:33.635Z,1007.87
2018-04-27T10:24:33.613Z,1007.81
2018-04-27T10:25:33.609Z,1007.78
2018-04-27T10:26:33.599Z,1007.83
2018-04-27T10:27:33.590Z,1007.84
2018-04-27T10:28:33.584Z,1007.92
2018-04-27T10:29:33.576Z,1007.90
2018-04-27T10:30:33.571Z,1007.96
2018-04-27T10:31:33.565Z,1007.91
2018-04-27T10:32:33.555Z,1007.93
2018-04-27T10:33:33.549Z,1007.87
2018-04-27T10:34:33.540Z,1007.87
2018-04-27T10:35:33.534Z,1007.83
2018-04-27T10:36:33.532Z,1007.82
2018-04-27T10:37:33.521Z,1007.86
2018-04-27T10:38:33.512Z,1007.82
2018-04-27T10:39:33.511Z,1007.76
2018-04-27T10:40:33.517Z,1007.71
2018-04-27T10:41:33.495Z,1007.64
2018-04-27T10:42:33.486Z,1007.62
2018-04-27T10:43:33.489Z,1007.65
2018-04-27T10:44:33.484Z,1007.57
2018-04-27T10:45:33.469Z,1007.58
2018-04-27T10:46:33.465Z,1007.58
2018-04-27T10:47:33.458Z,1007.54
2018-04-27T10:48:33.451Z,1007.56
2018-04-27T10:49:33.446Z,1007.58
2018-04-27T10:50:33.446Z,1007.52
2018-04-27T10:51:33.433Z,1007.54
2018-04-27T10:52:33.433Z,1007.55
2018-04-27T10:53:33.422Z,1007.55
2018-04-27T10:54:33.424Z,1007.51
2018-04-27T10:55:33.410Z,1007.44
2018-04-27T10:56:33.407Z,1007.50
2018-04-27T10:57:33.398Z,1007.44
2018-04-27T10:58:33.391Z,1007.40
2018-04-27T10:59:33.439Z,1007.41
2018-04-27T11:00:33.379Z,1007.46
2018-04-27T11:01:33.378Z,1007.47
2018-04-27T11:02:33.369Z,1007.49
2018-04-27T11:03:33.359Z,1007.49
2018-04-27T11:04:33.353Z,1007.48
2018-04-27T11:05:33.347Z,1007.27
2018-04-27T11:06:33.340Z,1007.37
2018-04-27T11:07:33.334Z,1007.24
2018-04-27T11:08:33.390Z,1007.35
2018-04-27T11:09:33.329Z,1007.15
2018-04-27T11:10:33.319Z,1007.18
2018-04-27T11:11:33.315Z,1007.24
2018-04-27T11:12:33.314Z,1007.16
2018-04-27T11:13:33.293Z,1007.16
2018-04-27T11:14:33.288Z,1007.05
2018-04-27T11:15:33.289Z,1007.09
2018-04-27T11:16:33.273Z,1007.08
2018-04-27T11:17:33.265Z,1007.07
2018-04-27T11:18:33.256Z,1007.01
2018-04-27T11:19:33.300Z,1006.95
2018-04-27T11:20:33.244Z,1006.93
2018-04-27T11:21:33.234Z,1006.90
2018-04-27T11:22:33.227Z,1006.89
2018-04-27T11:23:33.227Z,1006.88
2018-04-27T11:24:33.224Z,1006.91
2018-04-27T11:25:33.205Z,1006.87
2018-04-27T11:26:33.199Z,1006.94
2018-04-27T11:27:33.187Z,1006.91
2018-04-27T11:28:33.178Z,1006.78
2018-04-27T11:29:33.184Z,1006.79
2018-04-27T11:30:33.159Z,1006.74
2018-04-27T11:31:33.157Z,1006.77
2018-04-27T11:32:33.150Z,1006.74
2018-04-27T11:33:33.139Z,1006.99
2018-04-27T11:34:33.122Z,1006.93
2018-04-27T11:35:33.113Z,1006.69
2018-04-27T11:36:33.119Z,1006.72
2018-04-27T11:37:33.097Z,1006.62
2018-04-27T11:38:33.085Z,1006.69
2018-04-27T11:39:33.075Z,1006.86
2018-04-27T11:40:33.069Z,1006.90
2018-04-27T11:41:33.067Z,1006.68
2018-04-27T11:42:33.058Z,1007.09
2018-04-27T11:43:33.042Z,1006.66
2018-04-27T11:44:33.028Z,1006.59
2018-04-27T11:45:33.021Z,1006.67
2018-04-27T11:46:33.009Z,1006.64
2018-04-27T11:47:33.000Z,1006.73
2018-04-27T11:48:32.991Z,1006.79
2018-04-27T11:49:33.052Z,1006.76
2018-04-27T11:50:32.988Z,1006.70
2018-04-27T11:51:32.962Z,1006.70
2018-04-27T11:52:32.954Z,1006.70
2018-04-27T11:53:32.948Z,1006.70
2018-04-27T11:54:32.936Z,1006.66
2018-04-27T11:55:32.925Z,1006.58
2018-04-27T11:56:32.923Z,1006.52
2018-04-27T11:57:32.915Z,1006.46
2018-04-27T11:58:32.899Z,1006.43
2018-04-27T11:59:32.887Z,1006.38
2018-04-27T12:00:32.907Z,1006.38
2018-04-27T12:01:32.869Z,1006.34
2018-04-27T12:02:32.861Z,1006.27
2018-04-27T12:03:32.850Z,1006.32
2018-04-27T12:04:32.841Z,1006.35
2018-04-27T12:05:32.837Z,1006.29